createdAt,value
2022-11-05T00:01:47.917Z,101140.81
2022-11-05T00:04:33.233Z,101139.41
2022-11-05T00:07:25.248Z,101141.97
2022-11-05T00:10:01.463Z,101138.75
2022-11-05T00:12:46.604Z,101139.66
2022-11-05T00:15:31.836Z,101146.19
2022-11-05T00:17:58.194Z,101149.94
2022-11-05T00:20:24.696Z,101146.28
2022-11-05T00:23:10.139Z,101150.13
2022-11-05T00:25:37.002Z,101150.50
2022-11-05T00:28:03.810Z,101154.44
2022-11-05T00:30:30.725Z,101155.84
2022-11-05T00:33:02.479Z,101156.59
2022-11-05T00:35:30.201Z,101163.53
2022-11-05T00:37:56.526Z,101164.59
2022-11-05T00:40:22.848Z,101165.47
2022-11-05T00:43:08.266Z,101169.34
2022-11-05T00:45:34.756Z,101172.59
2022-11-05T00:48:19.844Z,101174.81
2022-11-05T00:50:46.262Z,101178.84
2022-11-05T00:53:12.972Z,101185.22
2022-11-05T00:55:42.354Z,101173.50
2022-11-05T00:58:15.110Z,101186.91
2022-11-05T01:00:53.325Z,101183.56
2022-11-05T01:03:22.305Z,101184.91
2022-11-05T01:05:51.331Z,101185.13
2022-11-05T01:08:19.332Z,101184.97
2022-11-05T01:10:48.874Z,101188.25
2022-11-05T01:13:20.907Z,101180.88
2022-11-05T01:15:47.814Z,101180.75
2022-11-05T01:18:14.290Z,101189.75
2022-11-05T01:20:41.055Z,101189.00
2022-11-05T01:23:13.014Z,101189.16
2022-11-05T01:25:40.499Z,101200.44
2022-11-05T01:28:08.852Z,101196.09
2022-11-05T01:30:36.221Z,101199.97
2022-11-05T01:33:03.617Z,101195.41
2022-11-05T01:35:30.302Z,101190.03
2022-11-05T01:37:56.652Z,101192.16
2022-11-05T01:40:24.203Z,101200.31
2022-11-05T01:42:50.549Z,101202.09
2022-11-05T01:45:24.131Z,101194.00
2022-11-05T01:48:02.536Z,101198.91
2022-11-05T01:50:31.892Z,101199.03
2022-11-05T01:53:04.106Z,101205.38
2022-11-05T01:55:36.651Z,101205.06
2022-11-05T01:58:05.377Z,101203.81
2022-11-05T02:00:32.089Z,101209.38
2022-11-05T02:02:58.512Z,101210.25
2022-11-05T02:05:25.187Z,101208.81
2022-11-05T02:07:52.590Z,101203.16
2022-11-05T02:10:19.929Z,101210.72
2022-11-05T02:12:48.516Z,101219.22
2022-11-05T02:15:19.235Z,101210.44
2022-11-05T02:18:15.692Z,101211.50
2022-11-05T02:20:52.518Z,101209.38
2022-11-05T02:23:33.962Z,101217.69
2022-11-05T02:26:36.341Z,101219.31
2022-11-05T02:29:30.384Z,101214.91
2022-11-05T02:32:07.846Z,101213.63
2022-11-05T02:34:51.492Z,101215.47
2022-11-05T02:37:37.995Z,101204.41
2022-11-05T02:40:22.639Z,101219.44
2022-11-05T02:43:16.087Z,101224.03
2022-11-05T02:46:00.037Z,101226.22
2022-11-05T02:48:34.946Z,101221.09
2022-11-05T02:51:19.382Z,101219.69
2022-11-05T02:53:53.547Z,101215.47
2022-11-05T02:56:31.144Z,101218.47
2022-11-05T02:58:57.519Z,101213.63
2022-11-05T03:01:24.232Z,101213.25
2022-11-05T03:04:00.463Z,101213.63
2022-11-05T03:07:08.027Z,101213.69
2022-11-05T03:09:56.671Z,101214.94
2022-11-05T03:12:33.642Z,101217.84
2022-11-05T03:15:35.436Z,101222.53
2022-11-05T03:18:21.998Z,101231.22
2022-11-05T03:20:56.838Z,101223.50
2022-11-05T03:23:48.173Z,101225.84
2022-11-05T03:26:27.065Z,101226.50
2022-11-05T03:28:59.734Z,101232.88
2022-11-05T03:31:28.927Z,101228.81
2022-11-05T03:33:58.261Z,101242.41
2022-11-05T03:36:32.851Z,101248.91
2022-11-05T03:39:05.249Z,101234.34
2022-11-05T03:41:33.735Z,101236.38
2022-11-05T03:44:03.884Z,101243.41
2022-11-05T03:46:41.462Z,101245.31
2022-11-05T03:49:11.147Z,101237.69
2022-11-05T03:51:55.848Z,101246.63
2022-11-05T03:54:22.456Z,101244.59
2022-11-05T03:56:57.220Z,101242.97
2022-11-05T03:59:24.193Z,101254.66
2022-11-05T04:01:50.706Z,101245.75
2022-11-05T04:04:17.271Z,101259.16
2022-11-05T04:07:08.520Z,101255.81
2022-11-05T04:09:53.288Z,101256.88
2022-11-05T04:12:38.091Z,101261.06
2022-11-05T04:15:04.848Z,101268.34
2022-11-05T04:17:31.391Z,101263.69
2022-11-05T04:20:16.407Z,101275.47
2022-11-05T04:23:01.749Z,101277.53
2022-11-05T04:25:28.074Z,101278.59
2022-11-05T04:27:59.337Z,101282.06
2022-11-05T04:30:26.609Z,101282.13
2022-11-05T04:33:08.909Z,101283.63
2022-11-05T04:35:38.219Z,101289.19
2022-11-05T04:38:06.550Z,101297.94
2022-11-05T04:40:33.242Z,101296.81
2022-11-05T04:42:59.820Z,101288.94
2022-11-05T04:45:28.578Z,101289.44
2022-11-05T04:47:55.091Z,101294.94
2022-11-05T04:50:22.000Z,101296.91
2022-11-05T04:52:48.423Z,101296.72
2022-11-05T04:55:15.362Z,101289.22
2022-11-05T04:57:42.105Z,101293.72
2022-11-05T05:00:11.496Z,101285.94
2022-11-05T05:02:50.223Z,101298.75
2022-11-05T05:05:17.076Z,101297.25
2022-11-05T05:07:43.525Z,101289.50
2022-11-05T05:10:10.820Z,101296.41
2022-11-05T05:12:43.787Z,101309.59
2022-11-05T05:15:10.417Z,101299.47
2022-11-05T05:18:08.019Z,101289.00
2022-11-05T05:21:08.530Z,101296.16
2022-11-05T05:23:49.993Z,101282.69
2022-11-05T05:26:17.119Z,101292.41
2022-11-05T05:28:45.980Z,101292.88
2022-11-05T05:31:12.694Z,101288.13
2022-11-05T05:33:39.104Z,101301.19
2022-11-05T05:36:11.095Z,101295.66
2022-11-05T05:38:50.685Z,101293.25
2022-11-05T05:41:17.925Z,101304.88
2022-11-05T05:43:44.778Z,101314.66
2022-11-05T05:46:13.920Z,101306.34
2022-11-05T05:48:40.941Z,101313.25
2022-11-05T05:51:09.901Z,101311.28
2022-11-05T05:53:53.702Z,101313.53
2022-11-05T05:59:14.590Z,101324.19
2022-11-05T06:01:41.853Z,101329.22
2022-11-05T06:04:09.903Z,101327.03
2022-11-05T06:06:36.699Z,101328.22
2022-11-05T06:09:03.749Z,101330.03
2022-11-05T06:11:51.556Z,101332.34
2022-11-05T06:14:18.017Z,101332.59
2022-11-05T06:16:44.707Z,101337.63
2022-11-05T06:19:11.276Z,101339.91
2022-11-05T06:21:37.783Z,101334.56
2022-11-05T06:24:05.934Z,101342.97
2022-11-05T06:26:32.708Z,101346.22
2022-11-05T06:29:00.851Z,101344.59
2022-11-05T06:31:28.921Z,101344.91
2022-11-05T06:33:55.299Z,101350.94
2022-11-05T06:36:27.877Z,101348.41
2022-11-05T06:38:54.470Z,101345.78
2022-11-05T06:42:16.658Z,101354.28
2022-11-05T06:44:53.366Z,101348.44
2022-11-05T06:47:32.140Z,101362.19
2022-11-05T06:50:00.936Z,101362.03
2022-11-05T06:52:31.330Z,101371.03
2022-11-05T06:54:57.898Z,101368.47
2022-11-05T06:57:27.942Z,101369.53
2022-11-05T06:59:59.925Z,101375.31
2022-11-05T07:02:48.061Z,101380.66
2022-11-05T07:05:16.200Z,101380.50
2022-11-05T07:07:44.882Z,101380.44
2022-11-05T07:10:14.364Z,101384.91
2022-11-05T07:12:42.435Z,101390.84
2022-11-05T07:15:10.615Z,101378.16
2022-11-05T07:17:46.569Z,101381.53
2022-11-05T07:20:14.651Z,101379.63
2022-11-05T07:22:41.279Z,101389.31
2022-11-05T07:25:08.386Z,101377.06
2022-11-05T07:27:40.094Z,101378.31
2022-11-05T07:30:08.961Z,101375.22
2022-11-05T07:32:46.370Z,101381.75
2022-11-05T07:35:12.706Z,101393.09
2022-11-05T07:37:50.980Z,101396.31
2022-11-05T07:40:19.297Z,101401.63
2022-11-05T07:42:52.215Z,101395.38
2022-11-05T07:45:22.194Z,101404.00
2022-11-05T07:47:51.729Z,101414.72
2022-11-05T07:50:44.518Z,101420.94
2022-11-05T07:53:14.717Z,101414.22
2022-11-05T07:55:46.003Z,101422.72
2022-11-05T07:58:12.573Z,101414.22
2022-11-05T08:00:39.741Z,101426.88
2022-11-05T08:03:10.365Z,101420.13
2022-11-05T08:05:46.085Z,101416.91
2022-11-05T08:08:15.167Z,101421.25
2022-11-05T08:10:42.327Z,101422.97
2022-11-05T08:13:10.105Z,101422.97
2022-11-05T08:15:36.935Z,101428.84
2022-11-05T08:18:09.066Z,101430.44
2022-11-05T08:20:46.733Z,101423.97
2022-11-05T08:23:13.558Z,101433.78
2022-11-05T08:25:41.019Z,101422.91
2022-11-05T08:28:11.022Z,101423.84
2022-11-05T08:30:39.055Z,101429.19
2022-11-05T08:33:11.629Z,101426.56
2022-11-05T08:35:47.827Z,101423.66
2022-11-05T08:38:17.079Z,101430.63
2022-11-05T08:40:45.072Z,101423.19
2022-11-05T08:43:16.983Z,101425.34
2022-11-05T08:45:43.375Z,101430.97
2022-11-05T08:48:14.873Z,101438.81
2022-11-05T08:50:48.900Z,101435.50
2022-11-05T08:53:20.507Z,101421.38
2022-11-05T08:55:47.750Z,101439.00
2022-11-05T08:58:17.184Z,101434.16
2022-11-05T09:00:48.692Z,101441.09
2022-11-05T09:03:16.240Z,101441.47
2022-11-05T09:05:42.924Z,101442.38
2022-11-05T09:08:18.613Z,101432.41
2022-11-05T09:10:46.958Z,101435.44
2022-11-05T09:13:18.855Z,101435.56
2022-11-05T09:15:50.245Z,101439.19
2022-11-05T09:18:18.183Z,101444.63
2022-11-05T09:20:44.927Z,101450.00
2022-11-05T09:23:14.222Z,101442.50
2022-11-05T09:25:40.718Z,101444.50
2022-11-05T09:28:16.167Z,101446.69
2022-11-05T09:30:53.545Z,101450.28
2022-11-05T09:33:26.086Z,101453.03
2022-11-05T09:35:59.351Z,101450.69
2022-11-05T09:38:45.762Z,101453.66
2022-11-05T09:41:25.736Z,101453.75
2022-11-05T09:44:00.500Z,101463.47
2022-11-05T09:46:40.991Z,101462.00
2022-11-05T09:49:18.659Z,101464.09
2022-11-05T09:51:45.257Z,101463.78
2022-11-05T09:54:14.627Z,101459.56
2022-11-05T09:56:42.130Z,101466.97
2022-11-05T09:59:21.468Z,101464.78
2022-11-05T10:01:48.965Z,101467.66
2022-11-05T10:04:26.035Z,101454.97
2022-11-05T10:06:57.491Z,101454.53
2022-11-05T10:09:33.944Z,101470.38
2022-11-05T10:12:29.195Z,101470.88
2022-11-05T10:15:07.131Z,101464.13
2022-11-05T10:17:39.304Z,101472.69
2022-11-05T10:20:33.629Z,101475.75
2022-11-05T10:23:12.304Z,101472.25
2022-11-05T10:25:42.411Z,101464.38
2022-11-05T10:28:16.082Z,101474.94
2022-11-05T10:30:44.374Z,101468.34
2022-11-05T10:33:15.615Z,101470.97
2022-11-05T10:35:51.226Z,101476.50
2022-11-05T10:38:17.603Z,101473.19
2022-11-05T10:40:49.179Z,101478.38
2022-11-05T10:43:29.375Z,101478.59
2022-11-05T10:46:14.494Z,101480.56
2022-11-05T10:49:03.691Z,101487.53
2022-11-05T10:51:31.347Z,101481.56
2022-11-05T10:54:04.579Z,101482.50
2022-11-05T10:56:39.538Z,101483.38
2022-11-05T10:59:19.963Z,101478.69
2022-11-05T11:01:46.921Z,101481.13
2022-11-05T11:04:20.484Z,101478.66
2022-11-05T11:06:53.883Z,101482.19
2022-11-05T11:09:32.512Z,101478.94
2022-11-05T11:12:16.913Z,101470.66
2022-11-05T11:14:59.865Z,101469.94
2022-11-05T11:17:28.745Z,101478.91
2022-11-05T11:20:24.340Z,101479.22
2022-11-05T11:23:00.874Z,101476.84
2022-11-05T11:25:39.516Z,101471.66
2022-11-05T11:28:11.332Z,101475.19
2022-11-05T11:30:37.884Z,101475.88
2022-11-05T11:33:11.971Z,101477.94
2022-11-05T11:35:39.041Z,101483.00
2022-11-05T11:38:07.024Z,101477.25
2022-11-05T11:40:36.467Z,101476.94
2022-11-05T11:43:20.537Z,101473.00
2022-11-05T11:45:56.555Z,101482.09
2022-11-05T11:48:29.843Z,101472.66
2022-11-05T11:53:41.060Z,101468.75
2022-11-05T11:56:23.183Z,101469.41
2022-11-05T11:59:14.081Z,101466.50
2022-11-05T12:02:19.579Z,101464.88
2022-11-05T12:04:54.063Z,101462.09
2022-11-05T12:07:39.583Z,101469.75
2022-11-05T12:10:46.223Z,101470.03
2022-11-05T12:13:18.579Z,101461.00
2022-11-05T12:16:06.975Z,101462.25
2022-11-05T12:19:04.768Z,101451.81
2022-11-05T12:22:00.326Z,101457.81
2022-11-05T12:24:36.002Z,101460.19
2022-11-05T12:27:30.458Z,101458.78
2022-11-05T12:30:10.668Z,101454.31
2022-11-05T12:33:10.059Z,101457.91
2022-11-05T12:35:57.611Z,101461.25
2022-11-05T12:38:53.381Z,101452.44
2022-11-05T12:41:50.417Z,101456.72
2022-11-05T12:44:55.468Z,101454.47
2022-11-05T12:47:30.970Z,101465.09
2022-11-05T12:50:27.963Z,101464.97
2022-11-05T12:53:14.163Z,101461.31
2022-11-05T12:55:48.628Z,101466.31
2022-11-05T12:58:22.702Z,101488.25
2022-11-05T13:01:04.807Z,101472.00
2022-11-05T13:03:36.160Z,101475.66
2022-11-05T13:06:09.573Z,101475.00
2022-11-05T13:08:56.215Z,101461.44
2022-11-05T13:11:44.398Z,101465.75
2022-11-05T13:14:23.086Z,101469.25
2022-11-05T13:16:53.746Z,101465.69
2022-11-05T13:19:30.992Z,101463.47
2022-11-05T13:22:09.660Z,101458.53
2022-11-05T13:24:50.171Z,101462.56
2022-11-05T13:27:42.855Z,101457.31
2022-11-05T13:30:15.483Z,101458.53
2022-11-05T13:33:05.823Z,101456.63
2022-11-05T13:35:41.096Z,101453.31
2022-11-05T13:38:34.811Z,101448.97
2022-11-05T13:41:15.767Z,101449.72
2022-11-05T13:44:10.239Z,101455.06
2022-11-05T13:47:13.821Z,101452.16
2022-11-05T13:50:16.795Z,101447.56
2022-11-05T13:53:06.798Z,101459.41
2022-11-05T13:55:42.343Z,101448.63
2022-11-05T13:58:26.153Z,101454.34
2022-11-05T14:01:09.959Z,101457.81
2022-11-05T14:03:37.210Z,101447.38
2022-11-05T14:06:06.644Z,101454.94
2022-11-05T14:08:44.947Z,101451.28
2022-11-05T14:11:31.065Z,101446.81
2022-11-05T14:14:01.738Z,101450.28
2022-11-05T14:16:46.375Z,101448.38
2022-11-05T14:19:30.316Z,101457.97
2022-11-05T14:21:58.421Z,101454.50
2022-11-05T14:24:40.787Z,101453.50
2022-11-05T14:27:10.043Z,101448.19
2022-11-05T14:29:43.626Z,101452.44
2022-11-05T14:32:30.818Z,101462.72
2022-11-05T14:35:15.496Z,101465.41
2022-11-05T14:37:52.229Z,101453.06
2022-11-05T14:40:42.208Z,101455.81
2022-11-05T14:43:20.206Z,101465.19
2022-11-05T14:45:58.314Z,101467.00
2022-11-05T14:48:37.476Z,101466.69
2022-11-05T14:51:27.929Z,101478.88
2022-11-05T14:54:03.007Z,101468.34
2022-11-05T14:56:40.786Z,101480.41
2022-11-05T14:59:33.024Z,101482.78
2022-11-05T15:02:04.443Z,101481.88
2022-11-05T15:04:33.144Z,101485.84
2022-11-05T15:07:02.518Z,101476.38
2022-11-05T15:09:42.578Z,101477.94
2022-11-05T15:12:24.344Z,101483.09
2022-11-05T15:14:57.154Z,101481.97
2022-11-05T15:17:29.636Z,101475.16
2022-11-05T15:20:09.342Z,101480.25
2022-11-05T15:22:40.815Z,101473.19
2022-11-05T15:25:17.943Z,101484.94
2022-11-05T15:27:54.616Z,101490.25
2022-11-05T15:30:23.484Z,101481.66
2022-11-05T15:32:51.092Z,101481.53
2022-11-05T15:35:28.155Z,101489.28
2022-11-05T15:38:01.648Z,101484.59
2022-11-05T15:40:33.078Z,101485.72
2022-11-05T15:43:21.170Z,101483.00
2022-11-05T15:46:14.635Z,101490.50
2022-11-05T15:48:44.649Z,101482.53
2022-11-05T15:51:12.631Z,101482.91
2022-11-05T15:54:08.293Z,101482.53
2022-11-05T15:56:36.359Z,101482.00
2022-11-05T15:59:16.288Z,101490.50
2022-11-05T16:01:51.550Z,101488.47
2022-11-05T16:04:33.438Z,101482.81
2022-11-05T16:07:07.477Z,101483.22
2022-11-05T16:09:37.803Z,101486.69
2022-11-05T16:12:27.130Z,101491.53
2022-11-05T16:14:56.522Z,101485.66
2022-11-05T16:17:25.640Z,101485.50
2022-11-05T16:19:52.498Z,101487.13
2022-11-05T16:22:19.328Z,101484.19
2022-11-05T16:24:46.802Z,101486.72
2022-11-05T16:27:19.971Z,101487.84
2022-11-05T16:29:55.766Z,101485.19
2022-11-05T16:32:30.709Z,101487.53
2022-11-05T16:35:01.033Z,101484.94
2022-11-05T16:37:37.485Z,101485.09
2022-11-05T16:40:12.789Z,101478.78
2022-11-05T16:42:40.458Z,101488.25
2022-11-05T16:45:10.283Z,101492.34
2022-11-05T16:47:36.861Z,101490.28
2022-11-05T16:50:14.527Z,101484.63
2022-11-05T16:52:40.967Z,101494.91
2022-11-05T16:55:08.888Z,101490.28
2022-11-05T16:57:36.056Z,101505.16
2022-11-05T17:00:04.824Z,101501.56
2022-11-05T17:02:31.366Z,101505.16
2022-11-05T17:04:57.858Z,101511.38
2022-11-05T17:07:24.377Z,101505.88
2022-11-05T17:09:50.722Z,101500.94
2022-11-05T17:12:17.138Z,101510.69
2022-11-05T17:14:43.699Z,101498.22
2022-11-05T17:17:10.623Z,101506.16
2022-11-05T17:19:42.112Z,101510.88
2022-11-05T17:22:12.596Z,101517.69
2022-11-05T17:24:39.164Z,101516.88
2022-11-05T17:27:05.767Z,101523.19
2022-11-05T17:29:32.197Z,101529.03
2022-11-05T17:31:58.667Z,101524.50
2022-11-05T17:34:25.564Z,101529.63
2022-11-05T17:36:51.931Z,101532.75
2022-11-05T17:39:18.341Z,101536.06
2022-11-05T17:41:53.150Z,101527.34
2022-11-05T17:44:19.679Z,101530.06
2022-11-05T17:46:46.031Z,101522.19
2022-11-05T17:49:12.434Z,101532.16
2022-11-05T17:51:38.861Z,101533.41
2022-11-05T17:54:05.479Z,101533.69
2022-11-05T17:56:55.118Z,101536.25
2022-11-05T17:59:23.868Z,101542.38
2022-11-05T18:01:50.445Z,101532.22
2022-11-05T18:04:16.949Z,101539.59
2022-11-05T18:06:43.989Z,101522.91
2022-11-05T18:09:10.898Z,101522.84
2022-11-05T18:11:55.194Z,101534.28
2022-11-05T18:14:24.165Z,101539.19
2022-11-05T18:16:51.491Z,101531.22
2022-11-05T18:19:18.015Z,101527.50
2022-11-05T18:21:50.229Z,101525.88
2022-11-05T18:24:19.860Z,101526.69
2022-11-05T18:26:53.800Z,101530.38
2022-11-05T18:29:20.277Z,101533.56
2022-11-05T18:31:46.888Z,101531.50
2022-11-05T18:34:13.240Z,101537.66
2022-11-05T18:36:39.693Z,101535.91
2022-11-05T18:39:06.700Z,101527.88
2022-11-05T18:44:16.564Z,101511.88
2022-11-05T18:46:57.579Z,101515.47
2022-11-05T18:49:25.375Z,101509.94
2022-11-05T18:51:51.772Z,101507.28
2022-11-05T18:54:18.113Z,101507.22
2022-11-05T18:56:56.542Z,101503.72
2022-11-05T18:59:36.837Z,101503.66
2022-11-05T19:02:05.026Z,101510.63
2022-11-05T19:04:31.485Z,101512.63
2022-11-05T19:07:03.134Z,101514.50
2022-11-05T19:09:31.290Z,101515.88
2022-11-05T19:11:58.444Z,101508.75
2022-11-05T19:17:05.550Z,101505.47
2022-11-05T19:19:37.989Z,101519.31
2022-11-05T19:22:10.914Z,101511.56
2022-11-05T19:24:37.580Z,101514.88
2022-11-05T19:27:04.634Z,101511.28
2022-11-05T19:29:40.613Z,101509.81
2022-11-05T19:32:42.133Z,101511.16
2022-11-05T19:35:08.732Z,101505.00
2022-11-05T19:37:36.884Z,101496.69
2022-11-05T19:40:03.785Z,101510.41
2022-11-05T19:42:33.283Z,101510.97
2022-11-05T19:45:16.632Z,101515.38
2022-11-05T19:47:55.796Z,101515.69
2022-11-05T19:50:22.183Z,101519.06
2022-11-05T19:52:51.213Z,101521.38
2022-11-05T19:55:17.639Z,101520.63
2022-11-05T19:57:51.160Z,101516.88
2022-11-05T20:00:17.829Z,101527.50
2022-11-05T20:02:50.700Z,101517.00
2022-11-05T20:05:19.360Z,101515.25
2022-11-05T20:07:49.803Z,101513.59
2022-11-05T20:10:18.861Z,101517.69
2022-11-05T20:12:54.101Z,101518.44
2022-11-05T20:15:20.471Z,101518.75
2022-11-05T20:17:53.587Z,101509.25
2022-11-05T20:20:22.697Z,101498.63
2022-11-05T20:22:51.784Z,101496.34
2022-11-05T20:25:20.904Z,101512.22
2022-11-05T20:27:47.594Z,101511.06
2022-11-05T20:30:14.060Z,101515.03
2022-11-05T20:32:56.668Z,101515.38
2022-11-05T20:35:48.783Z,101516.72
2022-11-05T20:38:15.471Z,101517.69
2022-11-05T20:40:42.200Z,101523.59
2022-11-05T20:43:11.305Z,101514.03
2022-11-05T20:45:38.393Z,101522.03
2022-11-05T20:48:05.130Z,101522.03
2022-11-05T20:50:52.837Z,101511.50
2022-11-05T20:56:22.657Z,101510.53
2022-11-05T20:58:49.760Z,101514.84
2022-11-05T21:01:21.705Z,101501.84
2022-11-05T21:03:48.347Z,101506.19
2022-11-05T21:06:15.476Z,101519.91
2022-11-05T21:08:50.005Z,101512.91
2022-11-05T21:11:18.442Z,101522.69
2022-11-05T21:13:45.766Z,101515.47
2022-11-05T21:16:18.236Z,101519.63
2022-11-05T21:18:46.320Z,101521.63
2022-11-05T21:21:18.184Z,101514.38
2022-11-05T21:23:44.755Z,101515.69
2022-11-05T21:26:13.487Z,101511.28
2022-11-05T21:28:49.070Z,101506.25
2022-11-05T21:31:15.502Z,101500.94
2022-11-05T21:33:51.004Z,101499.31
2022-11-05T21:36:21.799Z,101501.84
2022-11-05T21:38:48.160Z,101496.03
2022-11-05T21:41:14.577Z,101497.69
2022-11-05T21:43:42.285Z,101486.00
2022-11-05T21:46:12.227Z,101490.50
2022-11-05T21:48:38.798Z,101486.56
2022-11-05T21:51:23.877Z,101499.13
2022-11-05T21:54:08.544Z,101497.50
2022-11-05T21:56:54.010Z,101495.72
2022-11-05T21:59:41.289Z,101485.41
2022-11-05T22:02:09.407Z,101488.75
2022-11-05T22:04:38.485Z,101493.84
2022-11-05T22:07:06.356Z,101492.88
2022-11-05T22:09:33.182Z,101496.97
2022-11-05T22:12:00.773Z,101484.19
2022-11-05T22:14:35.198Z,101475.53
2022-11-05T22:17:02.811Z,101475.31
2022-11-05T22:19:30.577Z,101469.41
2022-11-05T22:21:57.125Z,101483.31
2022-11-05T22:24:24.275Z,101481.19
2022-11-05T22:26:50.724Z,101476.88
2022-11-05T22:29:17.443Z,101470.91
2022-11-05T22:31:44.568Z,101468.00
2022-11-05T22:34:11.786Z,101470.06
2022-11-05T22:36:38.891Z,101459.84
2022-11-05T22:39:06.352Z,101455.25
2022-11-05T22:41:33.073Z,101461.25
2022-11-05T22:43:59.474Z,101445.84
2022-11-05T22:46:26.971Z,101458.72
2022-11-05T22:48:54.241Z,101471.69
2022-11-05T22:51:24.785Z,101459.84
2022-11-05T22:53:51.416Z,101454.81
2022-11-05T22:56:20.833Z,101452.88
2022-11-05T22:58:48.071Z,101460.81
2022-11-05T23:01:15.685Z,101454.84
2022-11-05T23:03:43.973Z,101455.72
2022-11-05T23:06:34.964Z,101449.28
2022-11-05T23:09:22.460Z,101453.47
2022-11-05T23:11:51.294Z,101445.25
2022-11-05T23:14:17.717Z,101443.56
2022-11-05T23:17:03.175Z,101448.88
2022-11-05T23:19:49.673Z,101443.63
2022-11-05T23:22:55.385Z,101442.63
2022-11-05T23:25:23.071Z,101436.69
2022-11-05T23:27:52.575Z,101442.72
2022-11-05T23:30:21.672Z,101443.69
2022-11-05T23:32:48.513Z,101435.16
2022-11-05T23:35:14.962Z,101432.34
2022-11-05T23:38:00.327Z,101420.53
2022-11-05T23:40:29.577Z,101413.91
2022-11-05T23:43:15.692Z,101422.47
2022-11-05T23:45:59.030Z,101410.06
2022-11-05T23:48:32.992Z,101407.94
2022-11-05T23:51:05.252Z,101405.31
2022-11-05T23:53:34.362Z,101409.47
2022-11-05T23:56:09.800Z,101411.44
2022-11-05T23:58:37.580Z,101418.25
